California City, CA (93504)

12:38 AM PDT on August 31, 2014 (GMT -0700)
near R.P. Ulrich School | Change Station
CLOSE
Current Station
Personal Weather Station
Location: California City, CA
Elevation: 2350 ft
Nearby Weather Stations

Elev 2350 ft 35.12 °N, 117.97 °W | Updated 24 seconds ago

Partly Cloudy
Partly Cloudy
84.2 °F
Feels Like 81 °F
N
4.5
Wind Variable Wind from SSE
Gusts 4.5 mph

Today
High -- | Low -- °F
--% Chance of Precip.
Yesterday
High -- | Low -- °F
Precip. -- in
6:23 AM 7:20 PM
Waxing Crescent, 28% visible
Pressure 29.76 in
Visibility 10.0 miles
Clouds Clear
Heat Index 81 °F
Dew Point 34 °F
Humidity 17%
Rainfall 0.00 in
Snow Depth Not available.
UV 0 out of 12
Pollen 9.80 out of 12
Ozone Good
Flu Activity Not available.
METAR K9L2 310655Z AUTO 27013KT 10SM CLR 28/M03 A2984 RMK AO2 SLP078 T02831028 $

More Conditions Fewer Conditions

Pressure 29.76 in
Visibility 10.0 miles
Clouds Clear
Heat Index 81 °F
Dew Point 34 °F
Humidity 17%
Rainfall 0.00 in
Snow Depth Not available.
UV 0 out of 12
Pollen 9.80 out of 12
Ozone Good
Flu Activity Not available.
METAR K9L2 310655Z AUTO 27013KT 10SM CLR 28/M03 A2984 RMK AO2 SLP078 T02831028 $

More Conditions Fewer Conditions

10-Day Weather Forecast

Almanac

Astronomy

Aug. 31, 2014 Rise Set
Actual Time 6:23 AM PDT 7:20 PM PDT
Civil Twilight 5:57 AM PDT 7:45 PM PDT
Nautical Twilight 5:27 AM PDT 8:16 PM PDT
Astronomical Twilight 4:55 AM PDT 8:48 PM PDT
Moon 12:01 PM PDT 10:52 PM PDT
Length of Visible Light 13h 47m
Length of Day
12h 56m
Tomorrow will be 2m 6s shorter.
Waxing Crescent, 28% of the Moon is Illuminated
Today
Waxing Crescent
Sep 2
First Quarter
Sep 8
Full
Sep 15
Last Quarter
Sep 24
New

Today's Extremes

State Highs State Lows

Community

WunderPhotos

Upload Photos

1,748,809 photos uploaded!

Nearby

Air Quality

  Air Quality AQ Index Pollutant
Yesterday Moderate
OZONE
Current Good
OZONE
Sunday Good
OZONE
Sunday Good
PM10
Sunday Good
CO
Sunday Good
NO2

Snow Depth

Station Depth Elevation
Leavitt Lake 1 in 9400 ft
Leavitt Meadows 1 in 7200 ft
Summit Meadow 1 in 9122 ft
Monitor Pass 0 in 8350 ft
Blue Lakes 0 in 8000 ft

Earthquake Activity

City Distance Mag. Time & Date
Malibu, California 115 miles 2.5 8:11 AM PDT
2014-08-30
Orange Cove, California 123 miles 2.5 7:48 AM PDT
2014-08-29
Minimum magnitude displayed is 2.5.

Coastal Water Temperatures

Place Temperature
No Stations Reporting

Nearby Weather Stations